Time;durP1;ratioP1;P1;durP2;ratioP2;P2;SDS_P1;SDS_P2;PMS_P1;PMS_P2;Temp;Humidity;BMP_temperature;BMP_pressure;BME280_temperature;BME280_humidity;BME280_pressure;Samples;Min_cycle;Max_cycle;Signal;HPM_P1;HPM_P2
2024/02/12 00:01:45;;;;;;;47.73;18.63;;;;;;;;;;5116766;28;20284;-60
2024/02/12 00:04:12;;;;;;;53.87;18.37;;;;;;;;;;5119332;28;20286;-59
2024/02/12 00:06:37;;;;;;;45.97;19.08;;;;;;;;;;5113982;28;20276;-62
2024/02/12 00:09:03;;;;;;;54.33;18.87;;;;;;;;;;5108147;28;20048;-60
2024/02/12 00:11:29;;;;;;;48.90;18.53;;;;;;;;;;5117954;28;20264;-62
2024/02/12 00:13:56;;;;;;;46.97;18.13;;;;;;;;;;5118116;28;20038;-60
2024/02/12 00:16:22;;;;;;;51.83;17.90;;;;;;;;;;5110292;28;20032;-59
2024/02/12 00:18:49;;;;;;;47.60;18.63;;;;;;;;;;5115428;28;20265;-60
2024/02/12 00:21:15;;;;;;;59.57;19.70;;;;;;;;;;5117637;28;20087;-61
2024/02/12 00:23:43;;;;;;;43.20;17.33;;;;;;;;;;5117399;28;20287;-59
2024/02/12 00:26:09;;;;;;;47.57;20.10;;;;;;;;;;5111306;28;20043;-60
2024/02/12 00:28:35;;;;;;;45.47;19.43;;;;;;;;;;5120074;28;20285;-60
2024/02/12 00:31:01;;;;;;;40.53;18.20;;;;;;;;;;5121462;28;20279;-59
2024/02/12 00:33:28;;;;;;;46.83;17.95;;;;;;;;;;5126249;28;20086;-60
2024/02/12 00:35:54;;;;;;;38.93;16.53;;;;;;;;;;5099665;28;20028;-59
2024/02/12 00:38:20;;;;;;;50.45;19.42;;;;;;;;;;5113160;28;20275;-60
2024/02/12 00:40:45;;;;;;;43.37;17.03;;;;;;;;;;5105247;28;20024;-61
2024/02/12 00:43:11;;;;;;;40.23;16.43;;;;;;;;;;5117702;28;20273;-61
2024/02/12 00:45:38;;;;;;;47.55;17.08;;;;;;;;;;5114638;28;20032;-59
2024/02/12 00:48:04;;;;;;;46.03;17.80;;;;;;;;;;5102809;28;20044;-61
2024/02/12 00:50:29;;;;;;;49.05;17.10;;;;;;;;;;5111765;28;20275;-61
2024/02/12 00:52:55;;;;;;;44.00;16.00;;;;;;;;;;5120196;28;20556;-60
2024/02/12 00:55:20;;;;;;;56.40;21.10;;;;;;;;;;5106556;28;20035;-60
2024/02/12 00:57:47;;;;;;;38.08;16.73;;;;;;;;;;5115551;28;20028;-61
2024/02/12 01:00:14;;;;;;;58.47;19.07;;;;;;;;;;5112039;28;20028;-60
2024/02/12 01:02:40;;;;;;;50.97;18.17;;;;;;;;;;5115337;28;20268;-59
2024/02/12 01:05:08;;;;;;;45.73;18.03;;;;;;;;;;5107671;28;20292;-60
2024/02/12 01:07:38;;;;;;;55.07;18.63;;;;;;;;;;5107853;28;20324;-60
2024/02/12 01:10:04;;;;;;;48.10;17.47;;;;;;;;;;5103608;28;20262;-59
2024/02/12 01:12:30;;;;;;;44.67;16.63;;;;;;;;;;5113925;28;20311;-60
2024/02/12 01:14:55;;;;;;;52.80;18.13;;;;;;;;;;5109944;28;20028;-60
2024/02/12 01:17:24;;;;;;;56.93;20.70;;;;;;;;;;5111867;28;20038;-60
2024/02/12 01:19:53;;;;;;;58.23;23.13;;;;;;;;;;5110429;28;20058;-59
2024/02/12 01:22:19;;;;;;;49.67;19.83;;;;;;;;;;5117129;28;20285;-61
2024/02/12 01:24:45;;;;;;;54.72;18.77;;;;;;;;;;5111975;28;20257;-60
2024/02/12 01:27:12;;;;;;;45.58;18.40;;;;;;;;;;5111948;28;20024;-59
2024/02/12 01:29:40;;;;;;;57.77;17.97;;;;;;;;;;5100509;28;20028;-60
2024/02/12 01:32:06;;;;;;;54.67;17.97;;;;;;;;;;5116835;28;20324;-59
2024/02/12 01:34:32;;;;;;;;;;;;;;;;;;5122618;28;20264;-57
2024/02/12 01:36:58;;;;;;;40.80;16.67;;;;;;;;;;5102313;28;19938;-59
2024/02/12 01:39:23;;;;;;;49.73;19.57;;;;;;;;;;5112106;28;20039;-60
2024/02/12 01:41:48;;;;;;;52.13;18.03;;;;;;;;;;5114892;28;20110;-59
2024/02/12 01:44:14;;;;;;;38.80;15.90;;;;;;;;;;5110816;28;20028;-58
2024/02/12 01:46:39;;;;;;;48.30;18.40;;;;;;;;;;5105647;28;20038;-59
2024/02/12 01:49:07;;;;;;;48.58;17.10;;;;;;;;;;5109629;28;20039;-58
2024/02/12 01:51:33;;;;;;;45.10;17.50;;;;;;;;;;5114871;28;20063;-60
2024/02/12 01:53:59;;;;;;;50.08;18.80;;;;;;;;;;5111780;28;20289;-58
2024/02/12 01:56:25;;;;;;;41.97;17.80;;;;;;;;;;5115255;28;20047;-60
2024/02/12 01:58:51;;;;;;;42.80;16.48;;;;;;;;;;5109906;28;20024;-59
2024/02/12 02:01:17;;;;;;;52.43;19.43;;;;;;;;;;5113581;28;20047;-60
2024/02/12 02:03:43;;;;;;;53.17;18.60;;;;;;;;;;5111762;28;20035;-57
2024/02/12 02:06:12;;;;;;;56.15;20.40;;;;;;;;;;5108995;28;20036;-56
2024/02/12 02:08:38;;;;;;;45.93;18.90;;;;;;;;;;5116635;28;20031;-59
2024/02/12 02:11:07;;;;;;;44.60;17.90;;;;;;;;;;5102063;28;20277;-59
2024/02/12 02:13:33;;;;;;;39.07;18.30;;;;;;;;;;5114653;28;20035;-59
2024/02/12 02:15:59;;;;;;;55.72;20.67;;;;;;;;;;5115015;28;20294;-58
2024/02/12 02:18:24;;;;;;;52.03;20.20;;;;;;;;;;5114378;28;20036;-60
2024/02/12 02:20:50;;;;;;;54.50;22.87;;;;;;;;;;5106760;28;20028;-58
2024/02/12 02:23:16;;;;;;;56.17;20.83;;;;;;;;;;5107271;28;20024;-60
2024/02/12 02:25:42;;;;;;;57.73;20.80;;;;;;;;;;5120564;28;20036;-60
2024/02/12 02:28:07;;;;;;;54.22;20.35;;;;;;;;;;5116750;28;20035;-58
2024/02/12 02:30:33;;;;;;;52.03;19.13;;;;;;;;;;5110022;28;20032;-57
2024/02/12 02:32:58;;;;;;;57.43;21.07;;;;;;;;;;5115086;28;20292;-58
2024/02/12 02:35:24;;;;;;;48.50;19.27;;;;;;;;;;5115470;28;20506;-58
2024/02/12 02:37:49;;;;;;;47.05;17.75;;;;;;;;;;5111768;28;20054;-55
2024/02/12 02:40:14;;;;;;;44.33;19.17;;;;;;;;;;5114113;28;20024;-57
2024/02/12 02:42:40;;;;;;;48.55;18.52;;;;;;;;;;5114636;28;20036;-58
2024/02/12 02:45:06;;;;;;;46.97;18.73;;;;;;;;;;5122317;28;20032;-60
2024/02/12 02:47:32;;;;;;;45.78;19.02;;;;;;;;;;5114042;28;20050;-59
2024/02/12 02:49:57;;;;;;;59.57;23.27;;;;;;;;;;5110340;28;20044;-59
2024/02/12 02:52:24;;;;;;;56.25;21.92;;;;;;;;;;5112996;28;20044;-58
2024/02/12 02:54:50;;;;;;;48.37;21.63;;;;;;;;;;5119914;28;20038;-57
2024/02/12 02:57:15;;;;;;;78.23;24.67;;;;;;;;;;5114725;28;20264;-57
2024/02/12 02:59:41;;;;;;;78.35;23.73;;;;;;;;;;5110032;28;20031;-58
2024/02/12 03:02:08;;;;;;;61.75;21.85;;;;;;;;;;5109995;28;20032;-56
2024/02/12 03:04:35;;;;;;;52.23;20.90;;;;;;;;;;5114538;28;20048;-58
2024/02/12 03:07:01;;;;;;;58.78;21.08;;;;;;;;;;5113919;28;20269;-59
2024/02/12 03:09:26;;;;;;;50.35;19.83;;;;;;;;;;5114531;28;20016;-57
2024/02/12 03:11:53;;;;;;;53.60;19.23;;;;;;;;;;5113677;28;20032;-58
2024/02/12 03:14:18;;;;;;;57.08;21.10;;;;;;;;;;5105528;28;20039;-58
2024/02/12 03:16:44;;;;;;;53.95;21.45;;;;;;;;;;5104450;28;20040;-60
2024/02/12 03:19:09;;;;;;;49.40;21.02;;;;;;;;;;5113575;28;20063;-58
2024/02/12 03:21:35;;;;;;;53.03;20.07;;;;;;;;;;5109761;28;20016;-60
2024/02/12 03:24:00;;;;;;;62.27;20.00;;;;;;;;;;5115504;28;20032;-59
2024/02/12 03:26:26;;;;;;;;;;;;;;;;;;5115025;28;20043;-58
2024/02/12 03:28:52;;;;;;;50.07;19.73;;;;;;;;;;5117769;28;19912;-58
2024/02/12 03:31:18;;;;;;;46.67;19.97;;;;;;;;;;5117215;28;20040;-57
2024/02/12 03:33:48;;;;;;;54.22;20.88;;;;;;;;;;5113473;28;20280;-57
2024/02/12 03:36:15;;;;;;;62.38;22.63;;;;;;;;;;5112389;28;20044;-58
2024/02/12 03:38:40;;;;;;;52.97;19.13;;;;;;;;;;5113951;28;20056;-57
2024/02/12 03:41:07;;;;;;;51.67;20.50;;;;;;;;;;5121832;28;20020;-59
2024/02/12 03:43:37;;;;;;;54.55;21.55;;;;;;;;;;5114505;28;20340;-58
2024/02/12 03:46:03;;;;;;;63.53;22.55;;;;;;;;;;5121692;28;20086;-58
2024/02/12 04:02:10;;;;;;;65.63;22.55;;;;;;;;;;5109546;28;20035;-59
2024/02/12 04:04:38;;;;;;;62.92;22.02;;;;;;;;;;5114481;28;20024;-59
2024/02/12 04:07:04;;;;;;;70.68;23.02;;;;;;;;;;5117291;28;20032;-59
2024/02/12 04:09:29;;;;;;;73.90;24.93;;;;;;;;;;5119920;28;20024;-59
2024/02/12 04:11:54;;;;;;;102.37;27.97;;;;;;;;;;5126499;28;20279;-57
2024/02/12 04:14:20;;;;;;;77.82;27.40;;;;;;;;;;5107633;28;20024;-58
2024/02/12 04:16:47;;;;;;;81.53;24.90;;;;;;;;;;5109307;28;20080;-55
2024/02/12 04:19:13;;;;;;;77.68;24.25;;;;;;;;;;5118975;28;20043;-59
2024/02/12 04:21:40;;;;;;;67.23;24.00;;;;;;;;;;5118555;28;20083;-58
2024/02/12 04:24:06;;;;;;;73.88;25.40;;;;;;;;;;5119939;28;20047;-59
2024/02/12 04:26:32;;;;;;;73.95;25.02;;;;;;;;;;5124434;28;20039;-61
2024/02/12 04:28:58;;;;;;;77.95;24.25;;;;;;;;;;5106332;28;20015;-58
2024/02/12 04:31:26;;;;;;;73.72;25.45;;;;;;;;;;5117218;28;20036;-57
2024/02/12 04:33:53;;;;;;;74.38;25.40;;;;;;;;;;5118012;28;20109;-60
2024/02/12 04:36:19;;;;;;;73.50;25.88;;;;;;;;;;5110308;28;20025;-58
2024/02/12 04:38:45;;;;;;;84.55;28.63;;;;;;;;;;5116965;28;20100;-60
2024/02/12 04:41:12;;;;;;;81.10;27.47;;;;;;;;;;5107258;28;20037;-60
2024/02/12 04:43:37;;;;;;;92.47;27.02;;;;;;;;;;5119294;28;20066;-58
2024/02/12 04:46:03;;;;;;;81.60;26.53;;;;;;;;;;5120232;28;20039;-58
2024/02/12 04:48:28;;;;;;;77.70;26.90;;;;;;;;;;5108148;28;20290;-60
2024/02/12 04:50:54;;;;;;;95.35;29.27;;;;;;;;;;5116956;28;20053;-59
2024/02/12 04:53:19;;;;;;;86.03;28.13;;;;;;;;;;5118328;28;20054;-59
2024/02/12 04:55:45;;;;;;;82.00;27.83;;;;;;;;;;5118430;28;20293;-58
2024/02/12 04:58:11;;;;;;;82.97;28.00;;;;;;;;;;5115395;28;20024;-59
2024/02/12 05:00:37;;;;;;;75.03;24.40;;;;;;;;;;5116264;28;20038;-59
2024/02/12 05:03:06;;;;;;;74.53;24.97;;;;;;;;;;5117442;28;20039;-57
2024/02/12 05:05:32;;;;;;;76.20;26.95;;;;;;;;;;5117242;28;20248;-59
2024/02/12 05:07:57;;;;;;;82.07;25.57;;;;;;;;;;5113956;28;20036;-57
2024/02/12 05:10:22;;;;;;;56.33;18.67;;;;;;;;;;5109188;28;20048;-57
2024/02/12 05:12:50;;;;;;;82.32;25.67;;;;;;;;;;5116051;28;20031;-57
2024/02/12 05:15:15;;;;;;;77.75;27.20;;;;;;;;;;5115792;28;20031;-55
2024/02/12 05:17:55;;;;;;;57.43;21.27;;;;;;;;;;5115696;28;20096;-57
2024/02/12 05:23:07;;;;;;;76.95;26.00;;;;;;;;;;5106048;28;20032;-59
2024/02/12 05:25:33;;;;;;;67.40;25.02;;;;;;;;;;5122010;28;20035;-62
2024/02/12 05:28:00;;;;;;;74.70;27.02;;;;;;;;;;5102257;28;20033;-55
2024/02/12 05:30:26;;;;;;;74.75;25.92;;;;;;;;;;5113479;28;20043;-59
2024/02/12 05:32:52;;;;;;;71.30;25.40;;;;;;;;;;5115977;28;20043;-58
2024/02/12 05:35:18;;;;;;;67.45;24.30;;;;;;;;;;5117353;28;20088;-59
2024/02/12 05:37:43;;;;;;;65.22;24.75;;;;;;;;;;5115831;28;20036;-59
2024/02/12 05:40:09;;;;;;;67.53;23.17;;;;;;;;;;5107599;28;20028;-58
2024/02/12 05:42:35;;;;;;;67.13;25.25;;;;;;;;;;5105916;28;20032;-58
2024/02/12 05:45:01;;;;;;;66.32;24.27;;;;;;;;;;5115988;28;20046;-58
2024/02/12 05:47:26;;;;;;;65.38;22.95;;;;;;;;;;5118158;28;20119;-57
2024/02/12 05:49:53;;;;;;;74.65;24.00;;;;;;;;;;5112843;28;20028;-59
2024/02/12 05:52:18;;;;;;;64.57;22.73;;;;;;;;;;5113904;28;20062;-56
2024/02/12 05:54:44;;;;;;;65.07;24.70;;;;;;;;;;5115347;28;20016;-58
2024/02/12 05:57:10;;;;;;;66.40;23.70;;;;;;;;;;5121522;28;20107;-57
2024/02/12 05:59:35;;;;;;;;;;;;;;;;;;5115687;28;20039;-60
2024/02/12 06:02:04;;;;;;;64.70;20.80;;;;;;;;;;5115277;28;19908;-58
2024/02/12 06:04:30;;;;;;;66.95;22.17;;;;;;;;;;5113789;28;20052;-57
2024/02/12 06:06:56;;;;;;;65.32;20.90;;;;;;;;;;5107377;28;20085;-58
2024/02/12 06:09:22;;;;;;;60.72;21.50;;;;;;;;;;5112990;28;20061;-56
2024/02/12 06:11:47;;;;;;;67.97;23.17;;;;;;;;;;5114484;28;20036;-57
2024/02/12 06:14:13;;;;;;;66.60;22.33;;;;;;;;;;5113883;28;20024;-57
2024/02/12 06:16:38;;;;;;;59.73;21.83;;;;;;;;;;5116728;28;20028;-59
2024/02/12 06:19:04;;;;;;;64.10;21.77;;;;;;;;;;5112784;28;20264;-61
2024/02/12 06:21:30;;;;;;;60.67;20.80;;;;;;;;;;5112693;28;20280;-58
2024/02/12 06:23:56;;;;;;;60.47;20.38;;;;;;;;;;5118537;28;20032;-56
2024/02/12 06:26:22;;;;;;;53.80;20.90;;;;;;;;;;5115700;28;20019;-58
2024/02/12 06:28:47;;;;;;;54.93;21.30;;;;;;;;;;5117230;28;20054;-58
2024/02/12 06:31:13;;;;;;;52.53;19.93;;;;;;;;;;5111096;28;20284;-57
2024/02/12 06:33:39;;;;;;;51.30;19.65;;;;;;;;;;5104175;28;20027;-58
2024/02/12 06:36:05;;;;;;;49.95;18.67;;;;;;;;;;5118271;28;20047;-59
2024/02/12 06:38:30;;;;;;;49.67;20.07;;;;;;;;;;5111713;28;20024;-58
2024/02/12 06:40:56;;;;;;;46.42;19.10;;;;;;;;;;5114805;28;20260;-57
2024/02/12 06:43:21;;;;;;;54.27;19.73;;;;;;;;;;5114238;28;20020;-58
2024/02/12 06:45:48;;;;;;;46.40;19.73;;;;;;;;;;5119790;28;20114;-57
2024/02/12 06:48:13;;;;;;;49.87;18.83;;;;;;;;;;5101300;28;20036;-57
2024/02/12 06:50:39;;;;;;;53.17;19.27;;;;;;;;;;5098581;28;20304;-59
2024/02/12 06:53:04;;;;;;;50.90;19.00;;;;;;;;;;5123184;28;20536;-58
2024/02/12 06:55:31;;;;;;;48.83;18.57;;;;;;;;;;5106546;28;20028;-56
2024/02/12 06:57:57;;;;;;;41.40;19.13;;;;;;;;;;5108745;28;20027;-54
2024/02/12 07:00:23;;;;;;;52.53;19.13;;;;;;;;;;5108714;28;20269;-59
2024/02/12 07:02:48;;;;;;;47.63;18.20;;;;;;;;;;5115053;28;20260;-55
2024/02/12 07:05:17;;;;;;;50.93;19.83;;;;;;;;;;5108654;28;20042;-59
2024/02/12 07:07:43;;;;;;;56.47;19.03;;;;;;;;;;5111712;28;20020;-59
2024/02/12 07:10:09;;;;;;;52.65;18.73;;;;;;;;;;5109547;28;20273;-57
2024/02/12 07:12:35;;;;;;;59.20;20.90;;;;;;;;;;5118644;28;20058;-59
2024/02/12 07:15:00;;;;;;;46.72;19.77;;;;;;;;;;5114513;28;20036;-62
2024/02/12 07:17:25;;;;;;;52.43;19.80;;;;;;;;;;5121332;28;20062;-58
2024/02/12 07:19:51;;;;;;;60.10;21.00;;;;;;;;;;5104265;28;20033;-59
2024/02/12 07:22:19;;;;;;;50.87;20.77;;;;;;;;;;5099288;28;20418;-59
2024/02/12 07:24:49;;;;;;;51.88;20.08;;;;;;;;;;5118065;28;20043;-58
2024/02/12 07:27:18;;;;;;;54.10;19.88;;;;;;;;;;5119293;28;20032;-58
2024/02/12 07:29:44;;;;;;;51.80;20.77;;;;;;;;;;5125979;28;20090;-56
2024/02/12 07:32:13;;;;;;;61.42;25.00;;;;;;;;;;5113261;28;20051;-59
2024/02/12 07:34:39;;;;;;;65.90;24.83;;;;;;;;;;5117709;28;20035;-59
2024/02/12 07:37:04;;;;;;;66.20;23.37;;;;;;;;;;5117796;28;20024;-58
2024/02/12 07:39:30;;;;;;;54.13;21.63;;;;;;;;;;5126549;28;20057;-60
2024/02/12 07:41:59;;;;;;;56.20;22.93;;;;;;;;;;5110283;28;20288;-57
2024/02/12 07:44:25;;;;;;;66.60;23.40;;;;;;;;;;5120862;28;20058;-57
2024/02/12 07:46:50;;;;;;;67.53;25.15;;;;;;;;;;5115162;28;20279;-56
2024/02/12 07:49:16;;;;;;;66.53;24.00;;;;;;;;;;5116675;28;20088;-56
2024/02/12 07:51:41;;;;;;;72.63;24.17;;;;;;;;;;5109401;28;20036;-59
2024/02/12 07:54:07;;;;;;;57.67;22.65;;;;;;;;;;5114859;28;20052;-58
2024/02/12 07:56:32;;;;;;;69.40;24.07;;;;;;;;;;5118510;28;20032;-59
2024/02/12 07:58:58;;;;;;;67.83;22.57;;;;;;;;;;5117616;28;20095;-56
2024/02/12 08:01:24;;;;;;;;;;;;;;;;;;5106970;28;20269;-57
2024/02/12 08:03:50;;;;;;;64.10;23.00;;;;;;;;;;5113312;28;19918;-58
2024/02/12 08:06:17;;;;;;;61.10;22.65;;;;;;;;;;5118624;28;20032;-59
2024/02/12 08:08:43;;;;;;;62.17;22.97;;;;;;;;;;5116953;28;20070;-57
2024/02/12 08:11:08;;;;;;;64.77;22.53;;;;;;;;;;5111659;28;20265;-57
2024/02/12 08:13:35;;;;;;;62.67;24.60;;;;;;;;;;5120507;28;20305;-59
2024/02/12 08:16:01;;;;;;;65.17;23.47;;;;;;;;;;5117046;28;20071;-58
2024/02/12 08:18:28;;;;;;;59.63;23.97;;;;;;;;;;5118908;28;20053;-59
2024/02/12 08:20:54;;;;;;;60.23;24.97;;;;;;;;;;5110079;28;20285;-55
2024/02/12 08:23:21;;;;;;;58.20;23.15;;;;;;;;;;5108080;28;20257;-58
2024/02/12 08:25:46;;;;;;;61.15;25.23;;;;;;;;;;5116526;28;20087;-57
2024/02/12 08:28:11;;;;;;;65.37;24.30;;;;;;;;;;5120422;28;20027;-58
2024/02/12 08:30:37;;;;;;;60.40;24.13;;;;;;;;;;5117215;28;20028;-59
2024/02/12 08:33:03;;;;;;;70.03;25.13;;;;;;;;;;5112290;28;20051;-59
2024/02/12 08:35:29;;;;;;;72.75;24.95;;;;;;;;;;5104566;28;20272;-60
2024/02/12 08:37:55;;;;;;;63.87;24.80;;;;;;;;;;5105501;28;20032;-56
2024/02/12 08:40:20;;;;;;;77.97;26.15;;;;;;;;;;5115031;28;20091;-58
2024/02/12 08:42:46;;;;;;;65.00;25.73;;;;;;;;;;5114473;28;20039;-59
2024/02/12 08:45:12;;;;;;;61.95;26.10;;;;;;;;;;5108453;28;20106;-57
2024/02/12 08:47:38;;;;;;;59.95;23.90;;;;;;;;;;5098365;28;20032;-58
2024/02/12 08:50:05;;;;;;;55.17;24.88;;;;;;;;;;5106974;28;20043;-58
2024/02/12 08:52:31;;;;;;;57.88;23.85;;;;;;;;;;5102073;28;20071;-58
2024/02/12 08:54:59;;;;;;;60.63;23.38;;;;;;;;;;5110870;28;20088;-58
2024/02/12 08:57:25;;;;;;;54.73;21.17;;;;;;;;;;5112344;28;20039;-58
2024/02/12 08:59:50;;;;;;;57.75;23.13;;;;;;;;;;5106352;28;20270;-58
2024/02/12 09:02:15;;;;;;;55.03;22.30;;;;;;;;;;5110025;28;20033;-58
2024/02/12 09:04:42;;;;;;;57.40;22.50;;;;;;;;;;5111351;28;20024;-59
2024/02/12 09:07:09;;;;;;;50.63;20.97;;;;;;;;;;5108972;28;20091;-57
2024/02/12 09:09:34;;;;;;;;;;;;;;;;;;5103198;28;20307;-58
2024/02/12 09:11:59;;;;;;;47.97;20.57;;;;;;;;;;5124682;28;19913;-57
2024/02/12 09:14:25;;;;;;;43.78;19.88;;;;;;;;;;5108478;28;20059;-59
2024/02/12 09:16:51;;;;;;;46.97;18.80;;;;;;;;;;5111163;28;20087;-56
2024/02/12 09:19:16;;;;;;;46.27;18.80;;;;;;;;;;5113889;28;20080;-58
2024/02/12 09:21:42;;;;;;;47.83;21.77;;;;;;;;;;5112537;28;20024;-60
2024/02/12 09:24:11;;;;;;;43.30;18.57;;;;;;;;;;5115631;28;20044;-56
2024/02/12 09:26:37;;;;;;;45.27;18.57;;;;;;;;;;5115405;28;20036;-60
2024/02/12 09:29:02;;;;;;;49.77;20.40;;;;;;;;;;5122887;28;20276;-60
2024/02/12 09:31:31;;;;;;;54.53;18.57;;;;;;;;;;5113146;28;20100;-57
2024/02/12 09:33:56;;;;;;;42.03;18.50;;;;;;;;;;5102268;28;20051;-57
2024/02/12 09:36:24;;;;;;;41.00;16.47;;;;;;;;;;5110044;28;20269;-58
2024/02/12 09:38:50;;;;;;;40.73;19.07;;;;;;;;;;5122083;28;20034;-59
2024/02/12 09:41:16;;;;;;;42.55;18.90;;;;;;;;;;5114206;28;20260;-59
2024/02/12 09:43:42;;;;;;;40.58;19.58;;;;;;;;;;5115235;28;20028;-58
2024/02/12 09:46:10;;;;;;;44.30;18.87;;;;;;;;;;5113830;28;20051;-58
2024/02/12 09:48:35;;;;;;;42.90;19.57;;;;;;;;;;5113320;28;20292;-57
2024/02/12 09:51:05;;;;;;;33.57;14.97;;;;;;;;;;5115249;28;20295;-61
2024/02/12 09:53:30;;;;;;;30.07;13.37;;;;;;;;;;5107498;28;20057;-59
2024/02/12 09:55:56;;;;;;;33.15;14.40;;;;;;;;;;5105503;28;20261;-59
2024/02/12 09:58:21;;;;;;;30.88;13.73;;;;;;;;;;5117874;28;20040;-62
2024/02/12 10:00:47;;;;;;;27.02;11.50;;;;;;;;;;5107217;28;20048;-59
2024/02/12 10:03:13;;;;;;;34.47;13.20;;;;;;;;;;5107117;28;20039;-59
2024/02/12 10:05:43;;;;;;;26.70;12.65;;;;;;;;;;5113995;28;20051;-58
2024/02/12 10:08:21;;;;;;;24.60;12.07;;;;;;;;;;5109466;28;20035;-58
2024/02/12 10:10:47;;;;;;;28.17;11.53;;;;;;;;;;5111106;28;20298;-59
2024/02/12 10:13:13;;;;;;;29.60;13.33;;;;;;;;;;5099803;28;20039;-58
2024/02/12 10:15:42;;;;;;;30.83;10.93;;;;;;;;;;5110298;28;20103;-58
2024/02/12 10:18:09;;;;;;;17.40;7.93;;;;;;;;;;5119327;28;20047;-59
2024/02/12 10:20:35;;;;;;;20.07;8.80;;;;;;;;;;5116616;28;20142;-58
2024/02/12 10:23:00;;;;;;;32.63;12.70;;;;;;;;;;5107176;28;20066;-59
2024/02/12 10:25:26;;;;;;;26.02;10.20;;;;;;;;;;5111465;28;20032;-58
2024/02/12 10:27:51;;;;;;;26.27;9.73;;;;;;;;;;5114585;28;20088;-57
2024/02/12 10:30:17;;;;;;;24.58;8.65;;;;;;;;;;5117350;28;20103;-56
2024/02/12 10:32:45;;;;;;;14.85;6.22;;;;;;;;;;5100084;28;20028;-57
2024/02/12 10:35:14;;;;;;;17.53;5.70;;;;;;;;;;5109984;28;20066;-58
2024/02/12 10:37:39;;;;;;;14.63;6.67;;;;;;;;;;5101510;28;20040;-56
2024/02/12 10:40:12;;;;;;;15.83;6.10;;;;;;;;;;5115318;28;20095;-58
2024/02/12 10:42:42;;;;;;;23.50;6.93;;;;;;;;;;5093479;28;20055;-61
2024/02/12 10:45:07;;;;;;;14.77;5.90;;;;;;;;;;5109230;28;20103;-59
2024/02/12 10:47:36;;;;;;;18.30;7.53;;;;;;;;;;5106144;28;20058;-58
2024/02/12 10:50:03;;;;;;;17.27;5.07;;;;;;;;;;5101582;28;20051;-59
2024/02/12 10:52:29;;;;;;;13.83;5.47;;;;;;;;;;5103973;28;20028;-60
2024/02/12 10:54:56;;;;;;;11.57;5.23;;;;;;;;;;5105165;28;20020;-59
2024/02/12 10:57:22;;;;;;;15.02;6.22;;;;;;;;;;5112902;28;20016;-59
2024/02/12 11:00:00;;;;;;;11.07;5.97;;;;;;;;;;5112837;28;20028;-59
2024/02/12 11:02:26;;;;;;;14.63;6.90;;;;;;;;;;5113062;28;20028;-59
2024/02/12 11:04:55;;;;;;;13.90;5.67;;;;;;;;;;5106934;28;20039;-59
2024/02/12 11:07:24;;;;;;;11.30;5.33;;;;;;;;;;5107244;28;20274;-59
2024/02/12 11:10:17;;;;;;;20.10;8.47;;;;;;;;;;5112959;28;20039;-61
2024/02/12 11:12:45;;;;;;;14.73;6.60;;;;;;;;;;5097489;28;20040;-60
2024/02/12 11:15:18;;;;;;;20.00;7.03;;;;;;;;;;5096197;28;20032;-61
2024/02/12 11:17:44;;;;;;;17.30;6.17;;;;;;;;;;5097573;28;20032;-58
2024/02/12 11:20:16;;;;;;;13.30;6.38;;;;;;;;;;5104454;28;20039;-58
2024/02/12 11:22:44;;;;;;;18.57;5.73;;;;;;;;;;5112297;28;20306;-59
2024/02/12 11:25:10;;;;;;;17.47;5.87;;;;;;;;;;5108344;28;20033;-60
2024/02/12 11:27:36;;;;;;;;;;;;;;;;;;5120841;28;20028;-61
2024/02/12 11:30:01;;;;;;;15.68;5.03;;;;;;;;;;5102211;28;19909;-59
2024/02/12 11:32:26;;;;;;;13.13;3.70;;;;;;;;;;5110975;28;20096;-58
2024/02/12 11:34:52;;;;;;;13.40;4.38;;;;;;;;;;5113334;28;20031;-59
2024/02/12 11:37:18;;;;;;;;;;;;;;;;;;5106815;28;20032;-59
2024/02/12 11:39:54;;;;;;;14.80;4.17;;;;;;;;;;5116554;28;19933;-59
2024/02/12 11:42:21;;;;;;;11.10;3.77;;;;;;;;;;5111093;28;20038;-58
2024/02/12 11:44:47;;;;;;;16.60;4.73;;;;;;;;;;5112185;28;20028;-59
2024/02/12 11:47:22;;;;;;;14.83;4.67;;;;;;;;;;5113313;28;20028;-58
2024/02/12 11:49:48;;;;;;;7.80;4.10;;;;;;;;;;5114333;28;20020;-59
2024/02/12 11:52:14;;;;;;;16.75;4.93;;;;;;;;;;5113496;28;20047;-60
2024/02/12 11:54:39;;;;;;;;;;;;;;;;;;5104927;28;20039;-58
2024/02/12 11:57:05;;;;;;;13.53;6.57;;;;;;;;;;5102157;28;19912;-59
2024/02/12 11:59:31;;;;;;;14.32;5.78;;;;;;;;;;5109232;28;20045;-59
2024/02/12 12:01:56;;;;;;;13.27;5.40;;;;;;;;;;5103970;28;20083;-57
2024/02/12 12:04:22;;;;;;;15.75;7.00;;;;;;;;;;5113406;28;20028;-59
2024/02/12 12:06:47;;;;;;;13.10;5.47;;;;;;;;;;5113843;28;20047;-56
2024/02/12 12:09:14;;;;;;;;;;;;;;;;;;5116994;28;20032;-60
2024/02/12 12:11:41;;;;;;;11.33;4.83;;;;;;;;;;5117809;28;19975;-57
2024/02/12 12:14:07;;;;;;;13.47;4.67;;;;;;;;;;5107109;28;20035;-59
2024/02/12 12:16:32;;;;;;;12.10;4.27;;;;;;;;;;5107555;28;20039;-58
2024/02/12 12:19:01;;;;;;;18.63;7.20;;;;;;;;;;5108400;28;20301;-60
2024/02/12 12:21:27;;;;;;;11.03;4.67;;;;;;;;;;5113906;28;20261;-60
2024/02/12 12:23:52;;;;;;;8.70;3.77;;;;;;;;;;5127828;28;20048;-59
2024/02/12 12:26:19;;;;;;;10.32;3.75;;;;;;;;;;5114278;28;20035;-61
2024/02/12 12:28:44;;;;;;;9.83;3.10;;;;;;;;;;5103231;28;20036;-59
2024/02/12 12:31:11;;;;;;;11.77;3.63;;;;;;;;;;5120735;28;20039;-58
2024/02/12 12:33:37;;;;;;;18.53;4.40;;;;;;;;;;5122307;28;20303;-59
2024/02/12 12:36:03;;;;;;;8.43;3.45;;;;;;;;;;5121798;28;20039;-58
2024/02/12 12:38:29;;;;;;;6.63;2.97;;;;;;;;;;5128038;28;20020;-57
2024/02/12 12:40:55;;;;;;;12.45;2.80;;;;;;;;;;5119414;28;20031;-58
2024/02/12 12:43:22;;;;;;;8.10;2.63;;;;;;;;;;5112095;28;20046;-60
2024/02/12 12:45:47;;;;;;;8.53;3.23;;;;;;;;;;5111629;28;20055;-59
2024/02/12 12:48:13;;;;;;;8.13;3.80;;;;;;;;;;5103637;28;20032;-59
2024/02/12 12:50:39;;;;;;;8.73;3.28;;;;;;;;;;5121594;28;20055;-59
2024/02/12 12:53:06;;;;;;;10.07;3.80;;;;;;;;;;5116032;28;20119;-57
2024/02/12 12:55:32;;;;;;;9.97;2.60;;;;;;;;;;5115993;28;20082;-57
2024/02/12 12:58:00;;;;;;;9.87;2.97;;;;;;;;;;5113907;28;20032;-59
2024/02/12 13:00:36;;;;;;;6.73;2.40;;;;;;;;;;5115776;28;20044;-60
2024/02/12 13:03:01;;;;;;;10.07;3.95;;;;;;;;;;5111495;28;20031;-60
2024/02/12 13:05:27;;;;;;;4.80;2.30;;;;;;;;;;5123527;28;20029;-59
2024/02/12 13:07:53;;;;;;;8.82;2.42;;;;;;;;;;5115534;28;20055;-59
2024/02/12 13:10:19;;;;;;;11.40;2.40;;;;;;;;;;5119210;28;20053;-58
2024/02/12 13:12:45;;;;;;;6.88;2.17;;;;;;;;;;5115261;28;20039;-58
2024/02/12 13:15:11;;;;;;;;;;;;;;;;;;5120922;28;20035;-60
2024/02/12 13:17:37;;;;;;;17.73;4.83;;;;;;;;;;5119174;28;19911;-59
2024/02/12 13:20:10;;;;;;;;;;;;;;;;;;5115044;28;20028;-58
2024/02/12 13:22:36;;;;;;;12.63;3.70;;;;;;;;;;5113622;28;19908;-59
2024/02/12 13:25:02;;;;;;;4.80;0.80;;;;;;;;;;5115148;28;20024;-57
2024/02/12 13:27:28;;;;;;;6.63;1.35;;;;;;;;;;5111906;28;20040;-59
2024/02/12 13:29:53;;;;;;;3.20;1.07;;;;;;;;;;5117471;28;20051;-60
2024/02/12 13:32:18;;;;;;;1.73;0.83;;;;;;;;;;5120616;28;20071;-57
2024/02/12 13:34:44;;;;;;;3.38;1.15;;;;;;;;;;5106645;28;20089;-59
2024/02/12 13:37:11;;;;;;;5.70;1.13;;;;;;;;;;5110664;28;20035;-59
2024/02/12 13:39:37;;;;;;;2.70;0.90;;;;;;;;;;5113774;28;20027;-61
2024/02/12 13:42:08;;;;;;;3.13;1.40;;;;;;;;;;5117798;28;20039;-57
2024/02/12 13:44:34;;;;;;;7.03;1.63;;;;;;;;;;5111579;28;20031;-63
2024/02/12 13:46:59;;;;;;;3.00;1.50;;;;;;;;;;5097056;28;20095;-62
2024/02/12 13:49:25;;;;;;;5.65;1.10;;;;;;;;;;5112328;28;20092;-58
2024/02/12 13:51:51;;;;;;;1.87;0.97;;;;;;;;;;5108258;28;20041;-59
2024/02/12 13:54:16;;;;;;;5.03;1.10;;;;;;;;;;5110852;28;20024;-61
2024/02/12 13:56:41;;;;;;;4.60;1.23;;;;;;;;;;5105900;28;20044;-58
2024/02/12 13:59:07;;;;;;;9.70;1.13;;;;;;;;;;5101839;28;20475;-58
2024/02/12 14:01:35;;;;;;;5.57;1.75;;;;;;;;;;5104617;28;20024;-60
2024/02/12 14:04:01;;;;;;;8.33;1.83;;;;;;;;;;5114660;28;20032;-60
2024/02/12 14:06:27;;;;;;;;;;;;;;;;;;5112367;28;20033;-59
2024/02/12 14:08:52;;;;;;;8.13;2.00;;;;;;;;;;5110546;28;19923;-60
2024/02/12 14:11:18;;;;;;;10.30;3.40;;;;;;;;;;5112196;28;20042;-60
2024/02/12 14:13:45;;;;;;;2.83;1.30;;;;;;;;;;5102999;28;20050;-61
2024/02/12 14:16:11;;;;;;;3.53;1.57;;;;;;;;;;5106168;28;20027;-61
2024/02/12 14:18:37;;;;;;;13.07;2.13;;;;;;;;;;5113429;28;20047;-61
2024/02/12 14:21:03;;;;;;;12.02;1.83;;;;;;;;;;5118157;28;20027;-60
2024/02/12 14:23:28;;;;;;;6.22;1.77;;;;;;;;;;5102502;28;20035;-61
2024/02/12 14:25:54;;;;;;;4.85;1.83;;;;;;;;;;5105250;28;20037;-60
2024/02/12 14:28:20;;;;;;;9.73;2.93;;;;;;;;;;5110258;28;20044;-60
2024/02/12 14:30:46;;;;;;;8.18;2.25;;;;;;;;;;5100245;28;20095;-61
2024/02/12 14:33:14;;;;;;;11.23;2.30;;;;;;;;;;5116810;28;20032;-60
2024/02/12 14:35:44;;;;;;;8.23;2.17;;;;;;;;;;5107119;28;20267;-60
2024/02/12 14:38:13;;;;;;;10.43;2.30;;;;;;;;;;5106978;28;20332;-59